Date,TemperatureHighF,TemperatureAvgF,TemperatureLowF,DewpointHighF,DewpointAvgF,DewpointLowF,HumidityHigh,HumidityAvg,HumidityLow,PressureMaxIn,PressureMinIn,WindSpeedMaxMPH,WindSpeedAvgMPH,GustSpeedMaxMPH,PrecipitationSumIn
2013-1-1,25,18,3,20,13,0,93,82,66,30.34,30.19,0,0,4,0.02
2013-1-2,28,14,2,19,10,-1,96,84,65,30.33,30.22,1,0,3,0.00
2013-1-3,35,25,13,33,22,9,97,89,80,30.43,30.22,1,0,7,0.03
2013-1-4,35,21,8,29,17,5,95,86,76,30.43,30.33,2,0,5,0.01
2013-1-5,38,29,16,36,27,15,97,91,81,30.34,30.06,1,0,3,0.05
2013-1-6,37,28,17,35,23,14,92,82,71,30.43,30.04,2,0,10,0.00
2013-1-7,35,25,16,30,22,13,89,86,81,30.43,30.18,1,0,4,0.00
2013-1-8,47,36,27,38,31,24,88,82,66,30.23,30.12,6,0,12,0.00
2013-1-9,52,39,30,38,31,25,94,76,44,30.56,30.13,3,0,12,0.00
2013-1-10,52,39,30,51,35,26,96,86,71,30.52,29.81,2,0,3,0.32
2013-1-11,60,53,47,54,50,46,96,91,77,29.86,29.74,3,0,5,0.05
2013-1-12,54,44,31,50,40,30,100,85,63,30.01,29.77,3,0,9,0.06
2013-1-13,23,20,16,20,16,12,93,87,83,30.39,30.11,0,0,0,0.00
2013-1-14,26,19,12,21,16,11,95,88,74,30.55,30.39,1,0,3,0.00
2013-1-15,28,20,13,24,18,11,98,90,81,30.52,30.19,0,0,0,0.00
2013-1-16,39,29,14,33,26,12,100,87,74,30.20,29.98,0,0,0,0.04
2013-1-17,37,32,22,29,21,13,84,67,39,30.51,30.13,0,0,0,0.01
2013-1-18,47,34,20,32,24,15,83,68,52,30.52,30.07,0,0,0,0.01
2013-1-19,56,43,35,38,31,24,80,64,44,30.10,29.86,0,0,0,0.00
2013-1-20,36,23,18,24,10,6,69,56,37,30.40,30.11,0,0,0,0.00
2013-1-21,20,13,7,10,-2,-8,66,52,34,30.46,30.32,0,0,0,0.00
2013-1-22,19,12,4,3,-4,-8,65,50,31,30.54,30.43,0,0,0,0.00
2013-1-23,38,25,15,16,7,1,58,48,32,30.45,30.17,0,0,0,0.00
2013-1-24,26,20,11,7,2,-6,61,45,34,30.71,30.36,0,0,0,0.00
2013-1-25,40,30,23,19,13,5,71,51,34,30.36,30.08,0,0,0,0.00
2013-1-26,35,25,12,16,9,2,70,51,31,30.47,30.27,0,0,0,0.00
2013-1-27,45,34,26,43,28,16,91,77,60,30.41,29.95,0,0,0,0.24
2013-1-28,58,53,45,55,50,42,91,91,91,29.97,29.80,0,0,0,0.01
2013-1-29,67,60,52,61,56,50,91,89,81,29.80,29.40,0,0,0,1.15
2013-1-30,52,36,23,50,32,13,91,84,67,29.86,29.30,0,0,0,0.08
2013-1-31,26,19,9,20,8,-4,80,64,51,30.38,29.86,0,0,0,0.00
2013-2-1,24,15,5,19,3,-6,80,58,43,30.53,30.25,0,0,0,0.00
2013-2-2,32,25,18,26,17,9,83,71,60,30.26,30.10,0,0,0,0.01
2013-2-3,33,26,20,23,17,13,86,68,43,30.17,30.05,0,0,0,0.00
2013-2-4,43,32,25,26,22,17,79,66,47,30.06,29.85,0,0,0,0.00
2013-2-5,48,35,24,31,26,19,84,72,50,30.15,29.88,0,0,0,0.00
2013-2-6,48,36,24,32,28,20,90,75,50,30.27,30.10,0,0,0,0.00
2013-2-7,41,38,36,38,34,30,91,87,77,30.10,29.87,0,0,0,0.37
2013-2-8,37,32,29,33,24,22,85,74,69,30.44,30.06,0,0,0,0.00
2013-2-9,39,34,30,31,27,23,81,75,67,30.43,30.07,0,0,0,0.00
2013-2-10,50,44,37,48,40,31,91,85,61,30.10,29.56,0,0,0,0.51
2013-2-11,48,38,27,32,26,22,84,62,44,30.17,29.67,0,0,0,0.00
2013-2-12,41,31,23,28,24,20,90,78,55,30.22,29.98,0,0,0,0.00
2013-2-13,52,35,24,32,27,21,90,75,39,29.99,29.80,0,0,0,0.00
2013-2-14,46,38,31,35,30,26,88,74,56,30.07,29.76,0,0,0,0.00
2013-2-15,36,30,24,31,18,10,87,61,33,30.30,30.07,0,0,0,0.00
2013-2-16,34,24,17,14,10,4,70,54,34,30.31,30.20,0,0,0,0.00
2013-2-17,41,28,13,22,15,6,73,59,38,30.28,29.96,0,0,0,0.00
2013-2-18,58,42,29,46,33,19,89,70,52,29.96,29.51,0,0,0,0.18
2013-2-19,30,24,19,20,12,6,72,60,49,30.33,29.83,0,0,0,0.00
2013-2-20,27,19,9,14,6,-2,74,58,43,30.48,30.33,0,0,0,0.00
2013-2-21,32,26,16,29,19,10,90,77,65,30.42,29.91,0,0,0,0.00
2013-2-22,36,33,28,32,28,22,91,83,71,30.05,29.83,0,0,0,0.17
2013-2-23,33,26,18,22,18,13,82,71,57,30.08,30.02,0,0,0,0.00
2013-2-24,40,28,14,28,20,9,84,75,57,30.20,30.07,0,0,0,0.00
2013-2-25,46,37,29,35,29,24,81,74,63,30.16,29.83,0,0,0,0.00
2013-2-26,37,35,34,32,32,28,91,87,72,29.85,29.48,0,0,0,0.57
2013-2-27,40,35,32,34,31,30,91,87,74,29.84,29.60,0,0,0,0.42
2013-2-28,39,36,34,32,30,28,89,82,67,30.12,29.84,0,0,0,0.02
2013-3-1,34,31,27,31,24,20,89,75,66,30.26,30.11,0,0,0,0.02
2013-3-2,32,27,14,20,13,6,77,57,34,30.28,30.23,0,0,0,0.00
2013-3-3,36,24,12,19,14,6,83,65,39,30.27,30.13,0,0,0,0.00
2013-3-4,39,34,28,30,26,17,80,71,63,30.14,29.92,0,0,0,0.01
2013-3-5,37,34,31,32,29,25,91,84,73,30.11,29.87,0,0,0,0.16
2013-3-6,34,30,27,25,23,20,78,72,64,30.41,30.11,0,0,0,0.05
2013-3-7,38,32,28,28,25,21,81,74,63,30.48,30.40,0,0,0,0.00
2013-3-8,49,38,28,38,30,22,83,75,62,30.50,30.27,0,0,0,0.00
2013-3-9,54,45,38,44,38,32,86,76,65,30.27,29.80,0,0,0,0.29
2013-3-10,55,52,48,52,48,42,91,88,73,29.81,29.58,0,0,0,1.18
2013-3-11,51,38,34,49,34,26,91,85,75,29.97,29.65,0,0,0,0.01
2013-3-12,44,35,27,34,25,19,83,70,52,30.19,29.97,0,0,0,0.01
2013-3-13,40,30,25,22,18,12,77,64,35,30.44,30.19,0,0,0,0.00
2013-3-14,48,35,24,32,26,19,86,72,48,30.43,30.14,0,0,0,0.00
2013-3-15,58,43,29,44,36,26,89,75,54,30.13,29.67,0,0,0,0.00
2013-3-16,48,40,34,42,33,26,91,76,57,30.15,29.65,0,0,0,0.00
2013-3-17,42,36,32,30,26,22,76,67,54,30.21,29.93,0,0,0,0.00
2013-3-18,46,36,28,38,30,16,90,78,60,30.00,29.73,0,0,0,0.03
2013-3-19,47,32,22,18,14,4,69,49,19,30.22,29.98,0,0,0,0.00
2013-3-20,36,27,20,18,9,1,69,46,25,30.28,30.15,0,0,0,0.00
2013-3-21,38,26,14,12,7,3,72,47,24,30.18,30.06,0,0,0,0.00
2013-3-22,48,34,19,24,14,7,70,47,20,30.13,30.03,0,0,0,0.00
2013-3-23,53,42,35,24,22,16,60,45,25,30.13,29.98,0,0,0,0.00
2013-3-24,36,33,31,31,29,22,91,86,57,29.99,29.66,0,0,0,0.15
2013-3-25,36,33,29,30,27,25,91,80,66,30.19,29.79,0,0,0,0.33
2013-3-26,44,36,33,28,26,22,78,66,47,30.35,30.18,0,0,0,0.00
2013-3-27,47,36,27,29,25,20,85,67,36,30.42,30.35,0,0,0,0.00
2013-3-28,50,37,24,32,27,19,83,67,44,30.43,30.33,0,0,0,0.00
2013-3-29,61,47,37,37,32,28,79,60,30,30.34,30.24,0,0,0,0.00
2013-3-30,58,47,33,45,38,29,88,70,49,30.25,29.92,0,0,0,0.00
2013-3-31,66,53,43,48,39,25,91,64,32,29.97,29.81,0,0,0,0.00
2013-4-1,47,40,32,26,17,7,67,42,20,30.28,29.97,0,0,0,0.00
2013-4-2,52,38,23,20,13,3,77,41,14,30.39,30.28,0,0,0,0.00
2013-4-3,54,40,24,20,15,7,70,40,16,30.48,30.33,0,0,0,0.00
2013-4-4,63,45,29,25,18,10,68,39,13,30.33,30.05,0,0,0,0.00
2013-4-5,64,51,38,32,24,11,66,39,13,30.23,30.06,0,0,0,0.00
2013-4-6,72,59,44,48,32,22,74,38,21,30.09,29.68,0,0,0,0.10
2013-4-7,74,58,39,48,42,36,91,60,28,29.97,29.75,0,0,0,0.00
2013-4-8,78,66,58,59,55,43,87,70,43,29.88,29.64,0,0,0,0.07
2013-4-9,82,69,60,59,57,54,85,66,38,29.88,29.78,0,0,0,0.00
2013-4-10,67,53,46,61,49,43,91,87,77,29.93,29.68,0,0,0,1.88
2013-4-11,53,48,40,50,43,32,91,84,71,29.71,29.61,0,0,0,0.04
2013-4-12,45,42,40,37,34,31,78,74,69,29.97,29.68,0,0,0,0.00
2013-4-13,57,47,38,39,33,27,76,60,35,30.05,29.96,0,0,0,0.00
2013-4-14,77,62,47,51,44,38,78,56,28,29.97,29.62,0,0,0,0.00
2013-4-15,65,57,48,58,52,45,91,84,52,30.01,29.68,0,0,0,0.35
2013-4-16,55,49,44,46,42,38,91,76,54,30.22,29.95,0,0,0,0.13
2013-4-17,62,51,46,59,44,-100,91,81,66,30.23,29.70,0,-20,0,0.38
2013-4-18,63,33,42,60,-9,-100,91,52,73,29.72,29.47,0,-393,0,0.50
2013-4-19,46,40,34,35,29,-100,79,68,59,30.07,29.67,0,-14,0,0.00
2013-4-20,52,41,30,33,28,21,87,64,32,30.41,30.08,0,0,0,0.00
2013-4-21,61,49,38,42,35,29,76,61,45,30.50,30.31,0,0,0,0.00
2013-4-22,71,56,41,46,39,32,79,56,24,30.33,30.02,0,0,5,0.00
2013-4-23,58,49,41,51,45,36,90,84,67,30.06,29.93,0,0,4,0.38
2013-4-24,55,44,38,38,34,28,88,71,39,30.23,30.00,1,0,7,0.04
2013-4-25,61,49,38,36,31,23,83,54,25,30.35,30.18,3,0,16,0.00
2013-4-26,67,53,41,47,41,33,86,65,46,30.37,30.28,1,0,9,0.00
2013-4-27,64,54,44,53,48,41,91,80,48,30.32,29.97,2,0,11,0.25
2013-4-28,70,58,51,56,52,48,91,82,54,29.97,29.85,0,0,0,0.01
2013-4-29,78,62,44,59,53,42,91,74,49,29.95,29.75,0,0,0,0.00
2013-4-30,88,72,60,61,56,39,89,61,20,29.94,29.77,5,0,18,0.00
2013-5-1,85,69,56,60,54,44,91,65,24,30.10,29.94,1,0,2,0.00
2013-5-2,76,63,51,64,55,46,91,75,55,30.16,30.07,0,0,9,0.15
2013-5-3,66,55,47,63,52,44,91,89,80,30.10,29.80,0,0,5,0.93
2013-5-4,66,59,54,60,55,51,91,88,73,30.04,29.84,0,0,0,0.12
2013-5-5,72,62,54,58,54,51,91,77,50,30.03,29.90,0,0,0,0.02
2013-5-6,76,66,56,57,50,38,84,60,27,30.01,29.93,0,0,0,0.00
2013-5-7,82,68,55,50,42,28,69,43,15,30.05,29.96,0,0,0,0.00
2013-5-8,83,69,54,58,48,32,87,53,17,30.04,29.95,0,0,0,0.00
2013-5-9,71,60,60,65,50,-100,91,82,70,30.00,29.82,0,-68,0,0.66
2013-5-10,63,44,54,58,17,-100,91,65,74,30.01,29.82,0,-230,0,0.00
2013-5-11,65,47,44,55,20,-100,91,53,25,30.15,29.94,0,-144,0,0.00
2013-5-12,61,49,37,34,28,18,81,48,21,30.22,30.14,0,0,0,0.00
2013-5-13,72,56,38,42,34,19,85,48,14,30.23,30.03,0,0,0,0.00
2013-5-14,92,73,52,64,52,41,78,49,32,30.02,29.70,0,0,0,0.00
2013-5-15,88,77,64,62,56,51,73,50,34,29.85,29.74,0,0,0,0.00
2013-5-16,87,72,63,64,58,48,87,63,30,29.94,29.82,0,0,0,0.12
2013-5-17,83,71,59,65,59,49,91,69,32,29.99,29.91,0,0,0,0.00
2013-5-18,84,72,64,65,58,-100,91,69,43,30.02,29.89,0,-20,0,0.00
2013-5-19,91,78,63,70,65,60,91,67,43,29.92,29.70,0,0,0,0.00
2013-5-20,88,72,65,70,52,-100,90,59,35,29.85,29.68,0,-61,0,0.26
2013-5-21,79,17,66,69,-63,-100,86,18,72,29.77,29.66,0,-758,0,0.00
2013-5-22,78,65,62,66,52,-100,91,72,49,29.82,29.64,0,-48,0,0.06
2013-5-23,64,60,51,57,53,47,89,78,62,30.28,29.82,0,0,0,0.03
2013-5-24,71,56,42,47,40,31,90,59,26,30.46,30.28,0,0,0,0.00
2013-5-25,58,54,51,55,44,35,90,72,47,30.45,30.23,0,0,0,0.39
2013-5-26,68,60,53,64,55,49,91,86,78,30.29,30.02,0,0,1,0.92
2013-5-27,72,65,60,66,62,57,91,90,80,30.09,29.78,4,0,9,0.73
2013-5-28,80,73,65,72,68,62,91,85,74,29.90,29.74,10,2,18,0.33
2013-5-29,86,75,65,72,66,61,91,74,55,29.95,29.83,11,5,28,0.02
2013-5-30,85,75,65,72,67,60,91,77,58,29.91,29.76,16,6,25,1.20
2013-5-31,77,70,65,74,66,62,91,88,75,29.90,29.67,9,1,12,0.51
2013-6-1,78,69,62,69,64,58,91,84,67,29.83,29.69,11,3,26,0.14
2013-6-2,66,63,59,60,55,51,91,78,66,30.05,29.81,5,1,17,0.14
2013-6-3,71,61,51,53,50,42,91,68,44,30.15,30.03,2,0,15,0.00
2013-6-4,77,66,54,58,52,47,86,63,38,30.13,30.03,5,0,11,0.00
2013-6-5,82,71,59,62,57,51,88,63,35,30.05,29.87,1,0,4,0.00
2013-6-6,75,67,61,61,56,53,81,68,54,29.89,29.83,2,0,10,0.00
2013-6-7,77,66,57,57,52,49,80,63,42,29.93,29.88,3,1,12,0.00
2013-6-8,80,68,53,58,52,47,86,60,34,29.98,29.92,1,0,9,0.00
2013-6-9,83,70,62,65,59,54,90,69,38,29.96,29.78,0,0,0,0.00
2013-6-10,82,70,61,64,60,56,91,75,46,29.90,29.75,2,0,14,0.00
2013-6-11,89,75,59,72,65,57,91,73,49,29.95,29.78,5,1,14,0.01
2013-6-12,96,83,69,74,70,62,91,68,35,29.88,29.59,9,2,16,0.00
2013-6-13,85,76,69,69,58,47,89,56,29,29.99,29.66,6,1,17,0.00
2013-6-14,82,68,58,62,55,49,86,63,32,30.13,29.95,1,0,5,0.00
2013-6-15,80,72,66,73,65,56,91,81,60,30.07,29.87,5,0,14,0.71
2013-6-16,86,75,66,73,68,63,91,82,59,29.99,29.90,4,0,13,0.00
2013-6-17,88,76,65,72,65,55,91,70,36,29.96,29.88,0,0,0,0.01
2013-6-18,86,74,64,70,62,55,91,69,43,30.01,29.88,2,0,7,0.00
2013-6-19,87,73,58,64,57,50,78,59,33,30.10,30.01,1,0,15,0.00
2013-6-20,92,71,66,70,47,-100,91,57,34,30.13,30.03,0,-90,0,0.00
2013-6-21,92,63,71,73,37,-100,91,60,49,30.10,30.00,0,-180,0,1.71
2013-6-22,88,68,67,78,50,-100,90,69,67,30.04,29.96,8,-113,13,0.00
2013-6-23,88,74,68,75,65,-100,91,80,58,30.05,29.90,7,-19,12,0.02
2013-6-24,90,76,68,77,69,65,91,82,63,30.09,29.90,2,0,10,0.23
2013-6-25,88,78,71,77,73,68,91,86,69,29.95,29.81,6,1,10,0.84
2013-6-26,88,80,74,77,74,67,91,80,65,29.82,29.70,0,0,1,0.00
2013-6-27,91,80,70,74,70,65,91,75,43,29.84,29.74,2,0,6,0.00
2013-6-28,86,76,66,70,61,52,91,63,32,29.80,29.65,2,0,7,0.01
2013-6-29,76,69,65,68,63,57,91,82,70,29.76,29.62,1,0,7,0.23
2013-6-30,81,71,65,65,59,50,81,67,49,29.96,29.76,3,0,11,0.01
2013-7-1,75,68,63,53,49,45,61,51,37,30.02,29.94,2,0,9,0.00
2013-7-2,77,67,61,62,55,51,82,66,46,30.06,29.99,0,0,0,0.00
2013-7-3,83,69,61,61,56,48,88,68,32,30.09,30.02,0,0,0,0.00
2013-7-4,86,72,60,67,62,57,91,71,46,30.10,30.01,1,0,11,0.00
2013-7-5,86,74,62,70,63,59,91,73,43,30.09,30.00,2,0,14,0.00
2013-7-6,86,74,63,72,67,60,91,79,54,30.06,29.97,1,0,9,0.00
2013-7-7,90,78,65,74,69,62,91,73,49,30.02,29.95,3,0,21,0.00
2013-7-8,89,79,74,78,73,70,91,82,62,30.07,29.97,5,1,11,0.03
2013-7-9,94,82,75,79,75,72,91,81,56,30.01,29.87,1,0,7,0.03
2013-7-10,90,79,70,78,69,60,91,74,41,30.00,29.82,5,0,13,0.01
2013-7-11,85,73,62,65,59,52,91,65,36,30.08,30.00,1,0,9,0.01
2013-7-12,87,72,59,62,55,49,83,60,27,30.15,30.06,0,0,9,0.00
2013-7-13,86,72,60,65,59,-100,91,68,41,30.14,30.06,0,-14,2,0.00
2013-7-14,92,79,66,72,68,64,91,72,45,30.16,30.08,1,0,19,0.00
2013-7-15,93,81,73,76,72,-100,91,77,54,30.24,30.15,1,-7,5,0.00
2013-7-16,93,82,72,77,72,68,91,76,49,30.30,30.22,1,0,12,0.00
2013-7-17,95,83,72,76,73,69,91,74,44,30.32,30.17,1,0,20,0.00
2013-7-18,96,83,73,78,74,70,91,76,50,30.18,29.98,2,0,10,0.00
2013-7-19,97,84,72,77,73,69,91,73,46,29.98,29.81,2,0,6,0.00
2013-7-20,89,79,70,74,67,-100,91,72,44,29.91,29.81,0,-7,0,0.01
2013-7-21,85,64,67,75,44,-100,91,72,69,29.95,29.84,0,-150,0,0.11
2013-7-22,90,77,67,74,69,64,91,79,53,29.87,29.76,0,0,2,0.12
2013-7-23,86,75,67,70,64,58,91,71,47,29.93,29.76,2,0,14,0.01
2013-7-24,81,69,57,61,56,50,91,66,35,30.05,29.93,0,0,6,0.01
2013-7-25,83,68,54,63,56,49,91,68,36,30.12,30.04,0,0,7,0.00
2013-7-26,75,67,61,71,64,58,91,89,81,30.06,29.92,2,0,14,0.59
2013-7-27,71,62,52,60,52,44,91,72,39,30.00,29.94,4,1,20,0.59
2013-7-28,77,62,47,58,52,45,91,71,41,30.07,29.97,2,0,18,0.00
2013-7-29,80,66,52,64,56,49,91,72,41,30.17,30.07,1,0,5,0.00
2013-7-30,72,68,65,68,64,58,91,89,78,30.16,30.03,1,0,6,0.30
2013-7-31,79,72,64,72,67,62,91,86,68,30.04,29.98,2,0,12,0.01
2013-8-1,86,72,62,69,62,55,91,74,38,30.05,29.96,1,0,11,0.01
2013-8-2,86,73,63,74,67,60,91,83,61,29.96,29.88,3,0,11,0.08
2013-8-3,85,74,64,69,62,52,91,69,34,30.12,29.94,3,0,11,0.08
2013-8-4,84,70,57,64,58,51,91,70,33,30.19,30.09,1,0,22,0.00
2013-8-5,79,69,58,67,62,56,91,78,61,30.11,29.88,2,0,10,0.00
2013-8-6,90,77,69,75,70,66,91,81,56,29.92,29.81,1,0,6,0.00
2013-8-7,88,77,69,78,72,66,91,86,68,29.91,29.80,1,0,7,0.11
2013-8-8,86,75,67,72,67,60,91,78,57,29.98,29.90,1,0,11,0.11
2013-8-9,85,73,60,70,62,56,91,71,43,30.06,29.98,1,0,6,0.00
2013-8-10,86,73,60,67,61,54,91,69,37,30.14,30.05,2,0,7,0.00
2013-8-11,86,70,54,68,60,52,91,73,41,30.15,30.05,1,0,9,0.00
2013-8-12,85,73,63,73,66,60,91,81,59,30.07,29.89,3,0,13,0.14
2013-8-13,80,68,54,65,57,46,91,71,35,30.16,29.93,3,0,19,0.15
2013-8-14,79,62,48,58,51,45,91,71,36,30.24,30.15,1,0,9,0.00
2013-8-15,80,64,54,59,51,-100,91,69,36,30.21,30.10,1,-21,7,0.00
2013-8-16,82,46,58,60,8,-100,91,52,36,30.18,30.13,1,-306,5,0.00
2013-8-17,81,38,56,61,-6,-100,91,49,44,30.24,30.14,1,-385,3,0.00
2013-8-18,88,53,59,63,22,-100,90,55,32,30.20,30.10,1,-226,4,0.00
2013-8-19,88,62,59,68,42,-100,91,67,43,30.15,30.04,1,-109,15,0.00
2013-8-20,90,72,61,71,59,-100,91,73,42,30.12,30.02,1,-34,4,0.00
2013-8-21,93,63,64,72,40,-100,91,64,42,30.11,30.01,0,-156,0,0.00
2013-8-22,86,76,67,73,69,64,91,79,61,30.09,30.02,0,0,0,0.00
2013-8-23,89,75,64,71,66,61,91,75,45,30.14,30.07,0,0,0,0.00
2013-8-24,92,75,62,69,65,59,91,74,42,30.23,30.13,0,0,0,0.00
2013-8-25,92,75,62,68,64,60,91,73,39,30.28,30.16,0,0,1,0.00
2013-8-26,96,78,63,76,68,60,91,76,43,30.19,30.02,0,0,0,0.00
2013-8-27,98,80,68,77,69,65,91,74,37,30.04,29.91,0,0,0,0.00
2013-8-28,99,80,67,76,69,64,91,73,36,29.98,29.91,0,0,0,0.00
2013-8-29,91,79,72,75,72,69,91,80,55,30.05,29.95,0,0,1,0.00
2013-8-30,102,83,69,76,71,61,91,71,34,29.96,29.78,0,0,0,0.00
2013-8-31,101,82,68,76,70,62,90,70,42,29.81,29.70,0,0,0,0.00
2013-9-1,94,78,71,74,69,60,91,76,39,29.83,29.74,0,0,2,0.00
2013-9-2,87,73,64,63,58,53,87,63,38,29.97,29.83,2,0,9,0.00
2013-9-3,85,68,59,61,57,52,91,70,34,30.10,29.98,1,0,7,0.00
2013-9-4,89,69,54,65,56,46,91,71,25,30.17,30.06,1,0,6,0.00
2013-9-5,92,73,58,68,61,56,91,70,32,30.20,30.13,0,0,5,0.00
2013-9-6,91,73,60,67,61,58,91,71,34,30.19,30.02,1,0,6,0.00
2013-9-7,95,64,60,69,40,-100,91,64,29,30.04,29.89,0,-137,0,0.00
2013-9-8,92,78,70,72,69,66,91,75,44,29.98,29.87,0,0,1,0.00
2013-9-9,102,82,71,75,70,65,91,71,32,29.92,29.84,0,0,0,0.00
2013-9-10,102,80,65,73,65,55,91,66,22,30.04,29.92,0,0,1,0.00
2013-9-11,101,80,65,71,64,56,91,65,23,30.09,29.99,0,0,3,0.00
2013-9-12,89,75,64,72,58,34,91,63,18,30.08,29.97,0,0,2,0.02
2013-9-13,77,63,50,53,43,30,85,53,19,30.19,30.07,0,0,0,0.02
2013-9-14,79,58,42,51,43,32,91,65,19,30.22,30.06,0,0,0,0.00
2013-9-15,76,60,48,64,50,-100,90,75,40,30.16,30.00,0,-27,0,0.09
2013-9-16,77,63,52,60,53,47,91,73,38,30.33,30.15,0,0,0,0.09
2013-9-17,81,64,51,59,53,47,91,71,40,30.31,30.09,0,0,0,0.00
2013-9-18,91,75,62,70,63,54,87,69,43,30.09,29.92,0,0,0,0.00
2013-9-19,99,81,68,72,67,62,91,66,32,29.94,29.78,0,0,0,0.16
2013-9-20,74,68,53,69,61,48,91,79,49,29.91,29.82,3,0,12,0.05
2013-9-21,75,59,48,53,48,41,91,71,34,29.96,29.88,3,0,12,0.05
2013-9-22,78,59,47,53,46,39,91,68,25,30.07,29.96,1,0,4,0.00
2013-9-23,82,62,47,51,45,36,91,61,19,30.09,29.98,0,0,1,0.00
2013-9-24,83,64,49,57,52,46,91,67,32,30.00,29.85,0,0,2,0.00
2013-9-25,87,68,55,58,53,49,82,60,31,29.92,29.85,0,0,0,0.00
2013-9-26,74,58,55,57,53,50,89,82,56,30.03,29.92,0,0,0,0.00
2013-9-27,89,70,51,56,48,37,91,55,18,30.15,30.02,0,0,0,0.00
2013-9-28,88,70,55,68,57,50,91,67,32,30.07,29.91,0,0,0,0.26
2013-9-29,77,62,50,60,48,33,91,65,21,30.08,29.98,0,0,0,0.01
2013-9-30,83,62,48,58,50,43,91,71,26,30.02,29.88,0,0,0,0.01
2013-10-1,86,70,61,66,63,58,91,79,46,30.01,29.91,1,0,7,0.00
2013-10-2,87,71,61,71,64,58,91,80,40,30.07,29.95,0,0,1,0.01
2013-10-3,88,72,65,71,67,62,91,84,45,29.96,29.82,4,0,10,1.23
2013-10-4,90,75,64,74,66,62,91,78,43,29.96,29.88,0,0,20,1.23
2013-10-5,82,72,59,73,66,53,91,81,60,29.92,29.79,3,0,12,0.01
2013-10-6,62,52,45,54,44,38,91,76,47,29.86,29.79,3,0,10,0.05
2013-10-7,73,55,44,52,46,42,91,75,35,30.13,29.85,2,0,9,0.01
2013-10-8,82,59,45,54,45,36,91,68,21,30.23,30.13,0,0,3,0.01
2013-10-9,80,58,45,53,45,36,91,67,21,30.24,30.12,1,0,3,0.00
2013-10-10,83,62,50,60,52,45,91,73,34,30.18,30.02,1,0,4,0.00
2013-10-11,84,66,55,60,54,49,91,69,32,30.06,29.91,0,0,1,0.00
2013-10-12,76,64,54,66,53,38,91,70,36,30.23,29.94,1,0,108,0.06
2013-10-13,72,55,40,44,34,21,91,52,17,30.41,30.22,0,0,0,0.06
2013-10-14,73,55,40,45,36,25,90,55,17,30.42,30.15,0,0,0,0.00
2013-10-15,72,61,48,66,55,45,91,82,63,29.98,29.83,0,0,0,0.05
2013-10-16,54,48,41,46,43,38,91,83,67,30.02,29.95,0,0,0,0.05
2013-10-17,66,52,41,51,43,36,91,75,36,30.01,29.88,0,0,0,0.07
2013-10-18,53,43,37,45,36,-100,91,81,57,30.06,29.92,0,-18,0,0.03
2013-10-19,62,49,38,45,38,31,91,69,38,30.01,29.89,0,0,0,0.10
2013-10-20,74,54,34,44,38,32,91,59,26,29.94,29.77,0,0,0,0.00
2013-10-21,57,46,30,45,33,20,81,60,32,30.08,29.86,0,0,0,0.00
2013-10-22,46,38,28,44,35,24,91,87,80,30.08,29.87,0,0,0,0.01
2013-10-23,48,40,33,37,32,26,90,74,43,30.15,30.00,0,0,0,0.00
2013-10-24,47,39,28,37,26,19,91,61,34,30.42,30.12,0,0,0,0.00
2013-10-25,52,32,22,30,23,18,88,71,33,30.52,30.19,0,0,0,0.00
2013-10-26,62,48,30,36,28,19,83,50,21,30.17,29.98,0,0,0,0.00
2013-10-27,63,40,25,34,27,21,90,64,23,30.17,30.04,0,0,0,0.00
2013-10-28,70,49,33,40,30,20,80,55,16,30.32,30.09,0,0,0,0.00
2013-10-29,62,50,40,52,43,37,91,77,40,30.32,30.12,0,0,0,0.03
2013-10-30,67,61,55,64,58,52,91,91,91,30.12,29.79,0,0,3,1.04
2013-10-31,66,59,47,63,57,45,91,91,91,29.79,29.30,0,0,0,1.20
2013-11-1,57,48,40,49,43,37,91,82,58,29.83,29.55,3,0,9,0.08
2013-11-2,56,43,33,41,35,29,91,76,42,30.21,29.82,6,1,20,0.01
2013-11-3,59,43,29,45,33,26,91,71,36,30.34,30.19,3,0,10,0.00
2013-11-4,61,52,43,45,40,36,75,63,43,30.23,30.12,13,3,18,0.00
2013-11-5,58,55,53,54,50,45,91,84,70,30.28,29.98,8,2,14,0.07
2013-11-6,60,48,34,57,44,30,91,87,74,30.27,29.88,11,3,21,0.53
2013-11-7,56,38,28,41,30,25,90,76,38,30.38,30.26,4,0,16,0.01
2013-11-8,53,39,26,39,29,23,91,71,41,30.41,30.13,9,2,14,0.00
2013-11-9,69,53,36,39,34,31,87,53,26,30.23,30.00,1,0,7,0.00
2013-11-10,52,39,30,34,30,25,87,70,40,30.46,30.23,3,0,10,0.00
2013-11-11,40,32,29,35,27,20,89,80,71,30.58,30.28,5,2,20,0.03
2013-11-12,34,26,19,21,17,14,82,69,50,30.82,30.58,3,0,13,0.02
2013-11-13,46,30,15,24,18,10,83,63,31,30.73,30.28,6,0,14,0.00
2013-11-14,57,40,28,28,22,15,70,53,19,30.28,30.04,4,0,14,0.00
2013-11-15,53,42,32,40,33,23,85,70,55,30.06,29.95,5,1,10,0.01
2013-11-16,62,56,43,56,51,39,89,83,71,29.95,29.60,1,0,4,0.06
2013-11-17,75,59,36,64,51,31,90,77,56,29.92,29.24,3,0,14,0.02
2013-11-18,54,40,30,39,31,24,91,72,41,30.33,29.92,1,0,10,0.00
2013-11-19,50,35,22,30,25,18,88,69,37,30.41,30.27,0,0,3,0.00
2013-11-20,46,39,31,41,32,26,90,79,57,30.29,30.07,0,0,2,0.30
2013-11-21,52,48,44,48,45,41,91,89,82,30.25,30.11,0,0,0,0.19
2013-11-22,46,38,29,44,33,24,91,81,67,30.58,30.24,0,0,0,0.04
2013-11-23,29,24,17,23,13,5,85,62,44,30.81,30.56,0,0,0,0.00
2013-11-24,32,20,10,15,7,-4,78,59,24,30.85,30.48,0,0,0,0.00
2013-11-25,36,31,24,22,18,14,76,58,44,30.48,30.19,0,0,0,0.00
2013-11-26,39,27,18,28,16,4,86,64,41,30.28,30.13,0,0,0,0.00
2013-11-27,31,21,14,11,6,3,75,54,33,30.39,30.28,0,0,0,0.00
2013-11-28,44,29,16,18,15,9,76,57,33,30.56,30.26,0,0,0,0.00
2013-11-29,43,28,12,23,16,7,83,64,34,30.69,30.43,0,0,0,0.00
2013-11-30,57,37,26,31,26,20,84,66,32,30.42,30.11,0,0,0,0.00
2013-12-1,54,37,23,36,28,19,91,71,43,30.17,29.98,0,0,0,0.00
2013-12-2,50,40,34,38,34,28,89,77,58,29.98,29.71,0,0,0,0.00
2013-12-3,52,46,38,50,44,35,91,91,90,29.73,29.65,0,0,0,0.00
2013-12-4,59,50,38,56,47,31,91,89,76,29.84,29.51,4,0,11,0.01
2013-12-5,38,27,23,31,16,8,78,62,52,30.36,29.84,0,0,0,0.00
2013-12-6,23,20,13,10,6,3,65,56,46,30.67,30.34,0,0,0,0.00
2013-12-7,26,16,9,6,2,-3,69,56,28,30.80,30.60,0,0,0,0.00
2013-12-8,27,24,16,23,17,6,85,74,61,30.60,30.06,0,0,0,0.00
2013-12-9,27,20,8,23,11,0,84,67,55,30.35,30.07,0,0,0,0.01
2013-12-10,34,17,1,15,6,-6,76,63,41,30.38,30.20,0,0,0,0.02
2013-12-11,27,18,3,16,6,-8,74,59,30,30.72,30.33,0,0,0,0.00
2013-12-12,35,17,0,15,5,-7,73,60,38,30.71,30.29,0,0,0,0.00
2013-12-13,42,29,14,32,20,8,90,72,42,30.29,30.05,0,0,0,0.02
2013-12-14,34,32,24,32,28,18,91,85,76,30.14,29.94,0,0,0,0.04
2013-12-15,25,19,10,18,12,4,79,71,60,30.21,30.13,0,0,0,0.02
2013-12-16,24,21,17,20,15,11,86,78,72,30.18,30.08,0,0,0,0.00
2013-12-17,37,25,16,30,19,8,86,78,64,30.28,30.12,0,0,0,0.12
2013-12-18,39,25,6,30,17,-1,78,70,57,30.30,29.92,0,0,0,0.04
2013-12-19,43,37,28,39,33,24,91,85,74,29.95,29.78,0,0,0,0.20
2013-12-20,48,40,33,45,38,30,91,91,91,29.90,29.73,0,0,0,0.10
2013-12-21,35,33,31,33,30,29,91,90,89,29.92,29.58,0,0,5,0.00
2013-12-22,35,32,22,33,28,16,91,87,77,30.30,29.63,0,0,2,0.39
2013-12-23,22,16,6,16,7,-6,78,69,54,30.63,30.30,0,0,5,0.00
2013-12-24,23,12,2,12,2,-8,68,63,57,30.71,30.42,0,0,4,0.00
2013-12-25,32,29,23,27,22,12,82,76,62,30.42,30.23,0,0,0,0.00
2013-12-26,42,31,17,30,24,11,85,74,56,30.39,30.24,0,0,0,0.01
2013-12-27,51,34,21,34,26,18,89,76,48,30.38,30.21,0,0,0,0.00
2013-12-28,56,38,26,35,30,22,90,73,43,30.21,29.91,0,0,0,0.00
2013-12-29,35,26,9,31,20,-2,88,78,63,30.34,29.86,0,0,0,0.00
2013-12-30,21,12,3,9,0,-6,67,58,44,30.45,30.27,0,0,0,0.00
2013-12-31,30,22,13,20,12,6,76,66,49,30.47,30.26,0,0,0,0.00
2014-1-1,29,24,21,20,17,13,82,75,67,30.26,30.17,0,0,0,0.00
2014-1-2,21,12,1,15,5,-6,79,71,63,30.54,30.18,0,0,0,0.00